Time;durP1;ratioP1;P1;durP2;ratioP2;P2;SDS_P1;SDS_P2;PMS_P1;PMS_P2;Temp;Humidity;BMP_temperature;BMP_pressure;BME280_temperature;BME280_humidity;BME280_pressure;Samples;Min_cycle;Max_cycle;Signal;HPM_P1;HPM_P2
2023/02/01 00:00:04;;;;;;;28.27;13.27;;;0.70;99.90;;;;;;4435657;28;658507;-64
2023/02/01 00:02:52;;;;;;;25.87;12.23;;;0.60;99.90;;;;;;4410385;28;659885;-64
2023/02/01 00:05:39;;;;;;;24.52;9.93;;;0.60;99.90;;;;;;4435883;28;658863;-65
2023/02/01 00:08:26;;;;;;;16.90;9.07;;;0.70;99.90;;;;;;4413823;28;657616;-65
2023/02/01 00:11:15;;;;;;;17.43;8.67;;;0.60;99.90;;;;;;4437441;28;658434;-65
2023/02/01 00:14:02;;;;;;;28.87;12.57;;;0.70;99.90;;;;;;4412323;28;660153;-65
2023/02/01 00:16:49;;;;;;;22.90;11.77;;;0.70;99.90;;;;;;4448330;28;659117;-65
2023/02/01 00:19:36;;;;;;;17.07;9.13;;;0.70;99.90;;;;;;4412040;28;659049;-65
2023/02/01 00:22:24;;;;;;;30.43;10.77;;;0.80;99.90;;;;;;4437999;28;658990;-65
2023/02/01 00:25:11;;;;;;;21.60;9.87;;;0.80;99.90;;;;;;4419443;28;658550;-66
2023/02/01 00:28:00;;;;;;;22.17;10.80;;;0.80;99.90;;;;;;4437363;28;658561;-66
2023/02/01 00:30:47;;;;;;;21.13;9.53;;;0.80;99.90;;;;;;4424024;28;658899;-65
2023/02/01 00:33:34;;;;;;;23.63;12.37;;;0.80;99.90;;;;;;4442410;28;657423;-65
2023/02/01 00:36:22;;;;;;;24.50;11.60;;;0.90;99.90;;;;;;4410545;28;658854;-65
2023/02/01 00:39:09;;;;;;;17.83;9.80;;;0.90;99.90;;;;;;4430487;28;659435;-65
2023/02/01 00:41:56;;;;;;;14.43;6.97;;;0.90;99.90;;;;;;4410894;28;657423;-65
2023/02/01 00:44:45;;;;;;;22.30;11.03;;;0.90;99.90;;;;;;4443926;28;657384;-65
2023/02/01 00:47:32;;;;;;;28.37;13.73;;;0.90;99.90;;;;;;4406557;28;660468;-66
2023/02/01 00:50:19;;;;;;;23.35;12.05;;;0.90;99.90;;;;;;4378472;28;659284;-65
2023/02/01 00:53:06;;;;;;;25.00;12.23;;;0.90;99.90;;;;;;4382819;28;658631;-66
2023/02/01 00:55:54;;;;;;;22.10;10.90;;;0.90;99.90;;;;;;4438077;28;659815;-65
2023/02/01 00:58:41;;;;;;;23.67;11.97;;;0.90;99.90;;;;;;4416572;28;658639;-66
2023/02/01 01:01:30;;;;;;;28.87;13.03;;;0.90;99.90;;;;;;4430827;28;659508;-66
2023/02/01 01:04:17;;;;;;;23.07;10.80;;;0.90;99.90;;;;;;4417846;28;659420;-66
2023/02/01 01:07:04;;;;;;;21.63;9.83;;;0.90;99.90;;;;;;4442789;28;658776;-66
2023/02/01 01:09:51;;;;;;;20.00;11.03;;;0.90;99.90;;;;;;4418271;28;657357;-66
2023/02/01 01:12:39;;;;;;;11.27;6.23;;;0.90;99.90;;;;;;4434941;28;659533;-66
2023/02/01 01:15:26;;;;;;;19.57;9.80;;;1.00;99.90;;;;;;4411087;28;657593;-66
2023/02/01 01:18:15;;;;;;;23.63;11.40;;;1.00;99.90;;;;;;4436293;28;658284;-66
2023/02/01 01:21:02;;;;;;;24.10;11.23;;;1.00;99.90;;;;;;4415158;28;661337;-66
2023/02/01 01:23:49;;;;;;;24.20;11.40;;;1.00;99.90;;;;;;4441874;28;658947;-66
2023/02/01 01:26:36;;;;;;;16.53;9.23;;;0.90;99.90;;;;;;4418426;28;658469;-66
2023/02/01 01:29:25;;;;;;;19.43;10.13;;;0.90;99.90;;;;;;4429718;28;658794;-66
2023/02/01 01:32:13;;;;;;;21.30;9.30;;;0.90;99.90;;;;;;4429284;28;660331;-66
2023/02/01 01:35:02;;;;;;;21.90;9.10;;;0.90;99.90;;;;;;4421370;28;657232;-66
2023/02/01 01:37:49;;;;;;;12.63;7.23;;;0.80;99.90;;;;;;4441629;28;657392;-66
2023/02/01 01:40:36;;;;;;;16.50;8.73;;;0.80;99.90;;;;;;4422524;28;657708;-66
2023/02/01 01:43:23;;;;;;;12.73;7.07;;;0.80;99.90;;;;;;4429235;28;659076;-66
2023/02/01 01:46:10;;;;;;;14.47;6.00;;;0.80;99.90;;;;;;4420274;28;657608;-66
2023/02/01 01:49:02;;;;;;;12.20;5.20;;;0.80;99.90;;;;;;4433928;28;658771;-66
2023/02/01 01:51:52;;;;;;;10.83;3.60;;;0.80;99.90;;;;;;4413620;28;658594;-66
2023/02/01 01:54:41;;;;;;;10.33;4.93;;;0.90;99.90;;;;;;4412218;28;657493;-66
2023/02/01 01:57:30;;;;;;;6.07;3.00;;;0.90;99.90;;;;;;4424710;28;657657;-66
2023/02/01 02:00:19;;;;;;;15.15;3.72;;;0.90;99.90;;;;;;4421525;28;657706;-66
2023/02/01 02:03:08;;;;;;;6.87;3.27;;;0.90;99.90;;;;;;4412225;28;658021;-67
2023/02/01 02:05:56;;;;;;;8.43;2.90;;;0.90;99.90;;;;;;4413196;28;657605;-66
2023/02/01 02:08:45;;;;;;;9.57;2.60;;;1.00;99.90;;;;;;4440457;28;657460;-66
2023/02/01 02:11:32;;;;;;;8.93;2.30;;;1.00;99.90;;;;;;4419503;28;657350;-66
2023/02/01 02:14:20;;;;;;;11.40;2.63;;;1.00;99.90;;;;;;4440205;28;659047;-66
2023/02/01 02:17:19;;;;;;;4.40;1.60;;;0.90;99.90;;;;;;4414180;28;658324;-66
2023/02/01 02:20:39;;;;;;;8.10;1.83;;;0.90;99.90;;;;;;4429099;28;656758;-66
2023/02/01 02:24:12;;;;;;;8.27;1.73;;;0.90;99.90;;;;;;4350226;28;656953;-66
2023/02/01 02:27:22;;;;;;;6.77;1.27;;;1.00;99.90;;;;;;4419800;28;656518;-66
2023/02/01 02:30:23;;;;;;;6.27;1.43;;;1.00;99.90;;;;;;4427311;28;657073;-66
2023/02/01 02:33:35;;;;;;;8.33;1.77;;;1.00;99.90;;;;;;4392817;28;656605;-66
2023/02/01 02:36:32;;;;;;;5.70;1.03;;;1.00;99.90;;;;;;4392136;28;657094;-66
2023/02/01 02:39:24;;;;;;;6.03;1.40;;;1.00;99.90;;;;;;4406819;28;656981;-66
2023/02/01 02:48:29;;;;;;;9.17;2.07;;;0.90;99.90;;;;;;4297279;28;657032;-66
2023/02/01 03:04:08;;;;;;;6.50;2.53;;;1.00;99.90;;;;;;4415227;28;657461;-66
2023/02/01 03:06:57;;;;;;;6.40;1.93;;;1.00;99.90;;;;;;4391440;28;657246;-66
2023/02/01 03:09:45;;;;;;;9.07;2.30;;;1.00;99.90;;;;;;4435718;28;656303;-66
2023/02/01 03:15:39;;;;;;;8.30;2.77;;;1.00;99.90;;;;;;4411879;28;657097;-66
2023/02/01 03:18:29;;;;;;;6.83;2.50;;;1.00;99.90;;;;;;4418338;28;656433;-67
2023/02/01 03:21:18;;;;;;;7.53;2.77;;;0.90;99.90;;;;;;4416744;28;657044;-66
2023/02/01 03:24:09;;;;;;;9.40;3.40;;;0.90;99.90;;;;;;4417733;28;656133;-66
2023/02/01 03:26:57;;;;;;;8.77;2.93;;;0.90;99.90;;;;;;4422776;28;657255;-66
2023/02/01 03:29:46;;;;;;;9.67;3.37;;;0.90;99.90;;;;;;4431288;28;656632;-67
2023/02/01 03:32:58;;;;;;;7.30;2.30;;;0.90;99.90;;;;;;4413549;28;657272;-67
2023/02/01 03:35:44;;;;;;;11.40;2.97;;;0.90;99.90;;;;;;4394388;28;656993;-67
2023/02/01 03:38:33;;;;;;;6.17;1.97;;;0.90;99.90;;;;;;4416358;28;657995;-67
2023/02/01 03:41:25;;;;;;;9.17;2.60;;;0.90;99.90;;;;;;4433463;28;656668;-67
2023/02/01 03:44:14;;;;;;;6.67;2.67;;;0.90;99.90;;;;;;4414970;28;657640;-66
2023/02/01 03:47:04;;;;;;;12.00;2.80;;;0.90;99.90;;;;;;4417626;28;656550;-67
2023/02/01 03:49:53;;;;;;;7.30;2.67;;;0.80;99.90;;;;;;4418473;28;658298;-66
2023/02/01 03:52:42;;;;;;;5.37;2.50;;;0.90;99.90;;;;;;4416607;28;656768;-67
2023/02/01 03:55:30;;;;;;;7.23;2.60;;;0.90;99.90;;;;;;4439454;28;656516;-67
2023/02/01 03:58:19;;;;;;;8.00;2.60;;;0.90;99.90;;;;;;4422211;28;657388;-67
2023/02/01 04:01:06;;;;;;;8.07;2.40;;;0.80;99.90;;;;;;4416647;28;656934;-67
2023/02/01 04:03:54;;;;;;;13.23;2.83;;;0.80;99.90;;;;;;4438704;28;656284;-67
2023/02/01 04:06:41;;;;;;;10.40;2.90;;;0.80;99.90;;;;;;4418230;28;657568;-67
2023/02/01 04:09:28;;;;;;;10.07;2.70;;;0.80;99.90;;;;;;4428104;28;658261;-67
2023/02/01 04:12:15;;;;;;;4.93;2.20;;;0.80;99.90;;;;;;4414284;28;658399;-67
2023/02/01 04:15:04;;;;;;;6.87;2.17;;;0.80;99.90;;;;;;4444100;28;656918;-67
2023/02/01 04:17:52;;;;;;;9.20;2.60;;;0.90;99.90;;;;;;4423681;28;657579;-67
2023/02/01 04:20:39;;;;;;;9.27;2.83;;;0.90;99.90;;;;;;4437048;28;656564;-67
2023/02/01 04:23:26;;;;;;;5.47;2.50;;;0.90;99.90;;;;;;4421983;28;657145;-67
2023/02/01 04:26:13;;;;;;;11.17;2.80;;;1.00;99.90;;;;;;4430856;28;656492;-67
2023/02/01 04:29:01;;;;;;;6.23;2.13;;;1.00;99.90;;;;;;4417019;28;657501;-67
2023/02/01 04:31:50;;;;;;;7.20;2.03;;;1.00;99.90;;;;;;4434821;28;657360;-67
2023/02/01 04:34:37;;;;;;;8.33;2.43;;;0.90;99.90;;;;;;4421742;28;658032;-67
2023/02/01 04:37:24;;;;;;;6.53;3.13;;;0.90;99.90;;;;;;4440753;28;656174;-67
2023/02/01 04:40:12;;;;;;;5.73;3.20;;;1.00;99.90;;;;;;4413229;28;656680;-67
2023/02/01 04:43:01;;;;;;;9.60;3.23;;;1.00;99.90;;;;;;4436584;28;656255;-67
2023/02/01 04:45:49;;;;;;;8.27;2.50;;;1.00;99.90;;;;;;4422000;28;657350;-67
2023/02/01 04:48:37;;;;;;;7.53;2.93;;;0.90;99.90;;;;;;4418552;28;656698;-67
2023/02/01 04:51:25;;;;;;;7.97;3.13;;;0.80;99.90;;;;;;4432370;28;656818;-66
2023/02/01 04:54:12;;;;;;;6.40;2.47;;;0.80;99.90;;;;;;4445216;28;656664;-67
2023/02/01 04:57:00;;;;;;;8.87;3.10;;;0.80;99.90;;;;;;4442196;28;656408;-67
2023/02/01 04:59:47;;;;;;;5.43;3.07;;;0.80;99.90;;;;;;4441093;28;657502;-67
2023/02/01 05:02:35;;;;;;;9.50;3.83;;;0.80;99.90;;;;;;4440239;28;660973;-67
2023/02/01 05:05:24;;;;;;;3.97;2.57;;;0.80;99.90;;;;;;4443921;28;656680;-67
2023/02/01 05:08:11;;;;;;;7.17;3.87;;;0.80;99.90;;;;;;4421153;28;656667;-67
2023/02/01 05:10:58;;;;;;;10.60;5.00;;;0.70;99.90;;;;;;4439657;28;657108;-67
2023/02/01 05:13:48;;;;;;;10.43;6.03;;;0.70;99.90;;;;;;4418450;28;657751;-67
2023/02/01 05:16:36;;;;;;;11.80;5.83;;;0.60;99.90;;;;;;4427938;28;658547;-67
2023/02/01 05:19:23;;;;;;;12.07;5.23;;;0.60;99.90;;;;;;4448490;28;659260;-66
2023/02/01 05:22:12;;;;;;;14.25;7.90;;;0.60;99.90;;;;;;4425502;28;657398;-67
2023/02/01 05:24:59;;;;;;;13.47;7.70;;;0.60;99.90;;;;;;4441372;28;658356;-67
2023/02/01 05:27:46;;;;;;;13.77;5.60;;;0.60;99.90;;;;;;4422983;28;658105;-67
2023/02/01 05:30:34;;;;;;;17.30;7.13;;;0.60;99.90;;;;;;4441609;28;659118;-66
2023/02/01 05:33:22;;;;;;;15.63;8.23;;;0.60;99.90;;;;;;4408614;28;657711;-67
2023/02/01 05:36:09;;;;;;;15.60;8.07;;;0.60;99.90;;;;;;4439456;28;657768;-67
2023/02/01 05:38:58;;;;;;;21.23;9.13;;;0.70;99.90;;;;;;4421926;28;658130;-67
2023/02/01 05:41:45;;;;;;;18.10;8.05;;;0.60;99.90;;;;;;4421075;28;658383;-67
2023/02/01 05:44:32;;;;;;;20.37;9.97;;;0.60;99.90;;;;;;4444781;28;657763;-67
2023/02/01 05:47:20;;;;;;;16.73;10.00;;;0.60;99.90;;;;;;4440059;28;657830;-67
2023/02/01 05:50:08;;;;;;;20.50;10.17;;;0.60;99.90;;;;;;4431304;28;659756;-67
2023/02/01 05:52:56;;;;;;;20.37;8.80;;;0.60;99.90;;;;;;4416234;28;658496;-67
2023/02/01 05:55:44;;;;;;;25.00;10.77;;;0.60;99.90;;;;;;4443044;28;658488;-67
2023/02/01 05:58:31;;;;;;;21.70;11.63;;;0.60;99.90;;;;;;4415977;28;658509;-67
2023/02/01 06:01:19;;;;;;;21.07;9.17;;;0.50;99.90;;;;;;4434652;28;658820;-67
2023/02/01 06:04:06;;;;;;;19.87;8.80;;;0.50;99.90;;;;;;4425483;28;657856;-67
2023/02/01 06:06:53;;;;;;;21.77;9.63;;;0.60;99.90;;;;;;4447953;28;659451;-67
2023/02/01 06:09:40;;;;;;;24.20;10.10;;;0.60;99.90;;;;;;4419963;28;657657;-67
2023/02/01 06:12:29;;;;;;;21.07;9.97;;;0.60;99.90;;;;;;4434866;28;659657;-67
2023/02/01 06:15:16;;;;;;;25.20;10.60;;;0.60;99.90;;;;;;4419855;28;657776;-67
2023/02/01 06:18:04;;;;;;;22.13;9.63;;;0.60;99.90;;;;;;4443490;28;659545;-67
2023/02/01 06:20:54;;;;;;;21.50;7.67;;;0.70;99.90;;;;;;4420281;28;657852;-67
2023/02/01 06:23:42;;;;;;;20.93;9.07;;;0.70;99.90;;;;;;4411144;28;658230;-67
2023/02/01 06:26:29;;;;;;;22.93;7.87;;;0.70;99.90;;;;;;4442629;28;657496;-67
2023/02/01 06:29:18;;;;;;;13.90;6.10;;;0.80;99.90;;;;;;4421156;28;657461;-67
2023/02/01 06:32:06;;;;;;;18.50;7.07;;;0.80;99.90;;;;;;4426010;28;658398;-67
2023/02/01 06:34:53;;;;;;;15.90;7.50;;;0.80;99.90;;;;;;4437814;28;658381;-67
2023/02/01 06:37:40;;;;;;;20.07;6.50;;;0.80;99.90;;;;;;4427882;28;658028;-67
2023/02/01 06:40:27;;;;;;;14.30;6.13;;;0.90;99.90;;;;;;4419672;28;657573;-66
2023/02/01 06:43:15;;;;;;;14.37;6.30;;;0.90;99.90;;;;;;4342038;28;657289;-66
2023/02/01 06:46:05;;;;;;;16.80;5.80;;;0.90;99.90;;;;;;4348904;28;657984;-66
2023/02/01 06:48:52;;;;;;;14.00;4.60;;;1.00;99.90;;;;;;4304896;28;659572;-66
2023/02/01 06:51:39;;;;;;;16.88;5.25;;;1.00;99.90;;;;;;4430375;28;657264;-67
2023/02/01 06:54:27;;;;;;;16.47;5.80;;;1.00;99.90;;;;;;4425344;28;657918;-74
2023/02/01 06:57:14;;;;;;;18.93;7.07;;;1.00;99.90;;;;;;4425221;28;657308;-74
2023/02/01 07:00:02;;;;;;;18.87;6.57;;;1.00;99.90;;;;;;4406553;28;657838;-74
2023/02/01 07:02:51;;;;;;;17.87;7.27;;;1.00;99.90;;;;;;4429093;28;657729;-74
2023/02/01 07:05:38;;;;;;;20.20;6.57;;;1.10;99.90;;;;;;4409094;28;658894;-74
2023/02/01 07:08:25;;;;;;;21.27;6.90;;;1.10;99.90;;;;;;4419105;28;657699;-75
2023/02/01 07:11:13;;;;;;;14.83;6.17;;;1.10;99.90;;;;;;4438486;28;658049;-74
2023/02/01 07:14:01;;;;;;;22.40;7.20;;;1.10;99.90;;;;;;4411513;28;657662;-74
2023/02/01 07:16:48;;;;;;;20.50;7.83;;;1.20;99.90;;;;;;4429950;28;658627;-74
2023/02/01 07:19:37;;;;;;;23.17;6.90;;;1.20;99.90;;;;;;4414280;28;657674;-73
2023/02/01 07:22:24;;;;;;;19.10;6.73;;;1.20;99.90;;;;;;4438160;28;657563;-75
2023/02/01 07:25:11;;;;;;;22.93;5.90;;;1.30;99.90;;;;;;4426160;28;657694;-75
2023/02/01 07:27:58;;;;;;;13.60;4.85;;;1.20;99.90;;;;;;4431533;28;659385;-74
2023/02/01 07:30:50;;;;;;;16.10;6.30;;;1.30;99.90;;;;;;4418342;28;658004;-74
2023/02/01 07:33:37;;;;;;;18.38;6.60;;;1.30;99.90;;;;;;4421428;28;658369;-75
2023/02/01 07:36:26;;;;;;;17.97;6.37;;;1.40;99.90;;;;;;4433416;28;656641;-75
2023/02/01 07:39:13;;;;;;;11.30;5.50;;;1.40;99.90;;;;;;4415168;28;658026;-75
2023/02/01 07:42:01;;;;;;;11.73;4.43;;;1.40;99.90;;;;;;4411686;28;657721;-75
2023/02/01 07:44:49;;;;;;;16.07;5.67;;;1.40;99.90;;;;;;4442023;28;657866;-76
2023/02/01 07:47:36;;;;;;;14.77;6.30;;;1.40;99.90;;;;;;4408115;28;658070;-75
2023/02/01 07:50:23;;;;;;;11.60;5.17;;;1.40;99.90;;;;;;4425007;28;658098;-74
2023/02/01 07:53:12;;;;;;;16.77;6.70;;;1.50;99.90;;;;;;4413629;28;657481;-75
2023/02/01 07:56:00;;;;;;;15.55;6.55;;;1.40;99.90;;;;;;4434573;28;658058;-75
2023/02/01 07:58:48;;;;;;;17.90;6.67;;;1.50;99.90;;;;;;4407524;28;658345;-75
2023/02/01 08:01:35;;;;;;;11.47;5.77;;;1.40;99.90;;;;;;4410943;28;657959;-75
2023/02/01 08:04:23;;;;;;;15.07;6.57;;;1.40;99.90;;;;;;4426587;28;657999;-75
2023/02/01 08:07:10;;;;;;;11.60;6.27;;;1.40;99.90;;;;;;4428468;28;657742;-75
2023/02/01 08:09:59;;;;;;;25.17;7.93;;;1.40;99.90;;;;;;4442660;28;658469;-74
2023/02/01 08:12:48;;;;;;;14.20;7.00;;;1.40;99.90;;;;;;4412083;28;657566;-74
2023/02/01 08:15:35;;;;;;;15.50;5.67;;;1.50;99.90;;;;;;4410954;28;657064;-74
2023/02/01 08:18:23;;;;;;;14.87;6.73;;;1.50;99.90;;;;;;4430026;28;658978;-74
2023/02/01 08:21:11;;;;;;;16.70;6.10;;;1.50;99.90;;;;;;4421540;28;657779;-74
2023/02/01 08:23:58;;;;;;;14.27;6.20;;;1.60;99.90;;;;;;4435402;28;658472;-74
2023/02/01 08:26:47;;;;;;;16.87;6.77;;;1.70;99.90;;;;;;4410670;28;657383;-74
2023/02/01 08:29:34;;;;;;;13.10;4.17;;;1.70;99.90;;;;;;4428023;28;658355;-74
2023/02/01 08:32:22;;;;;;;21.30;6.90;;;1.80;99.90;;;;;;4409396;28;657371;-73
2023/02/01 08:35:09;;;;;;;17.70;7.80;;;1.90;99.90;;;;;;4431485;28;657185;-74
2023/02/01 08:37:57;;;;;;;12.70;5.77;;;2.00;99.90;;;;;;4421100;28;658128;-74
2023/02/01 08:40:45;;;;;;;15.60;7.30;;;1.90;99.90;;;;;;4425916;28;658138;-74
2023/02/01 08:43:34;;;;;;;14.73;6.85;;;1.90;99.90;;;;;;4411017;28;658649;-74
2023/02/01 08:46:21;;;;;;;16.97;7.23;;;2.00;99.90;;;;;;4413520;28;657362;-73
2023/02/01 08:49:08;;;;;;;15.63;6.67;;;2.00;99.90;;;;;;4434272;28;657895;-73
2023/02/01 08:51:55;;;;;;;22.48;6.78;;;1.90;99.90;;;;;;4412422;28;657404;-74
2023/02/01 08:54:43;;;;;;;13.43;5.83;;;1.90;99.90;;;;;;4437021;28;658469;-73
2023/02/01 08:57:30;;;;;;;16.63;6.67;;;2.00;99.90;;;;;;4421071;28;658193;-74
2023/02/01 09:00:19;;;;;;;17.80;7.40;;;2.10;99.90;;;;;;4431795;28;657920;-72
2023/02/01 09:03:07;;;;;;;22.30;8.33;;;2.20;99.90;;;;;;4410162;28;657837;-72
2023/02/01 09:06:00;;;;;;;18.63;7.70;;;2.30;99.90;;;;;;4440049;28;657680;-74
2023/02/01 09:08:47;;;;;;;15.93;6.80;;;2.40;99.90;;;;;;4393098;28;658091;-75
2023/02/01 09:11:34;;;;;;;16.97;6.40;;;2.40;99.90;;;;;;4438541;28;657823;-73
2023/02/01 09:14:21;;;;;;;15.10;6.73;;;2.30;99.90;;;;;;4409234;28;657640;-75
2023/02/01 09:17:10;;;;;;;15.00;5.30;;;2.30;99.90;;;;;;4439810;28;657304;-74
2023/02/01 09:19:57;;;;;;;17.57;5.63;;;2.20;99.90;;;;;;4419053;28;658049;-73
2023/02/01 09:22:45;;;;;;;17.13;6.10;;;2.10;99.90;;;;;;4436528;28;657545;-74
2023/02/01 09:25:32;;;;;;;13.07;5.80;;;2.30;99.90;;;;;;4439358;28;657566;-74
2023/02/01 09:28:20;;;;;;;13.97;6.50;;;2.40;99.90;;;;;;4435244;28;657877;-74
2023/02/01 09:31:08;;;;;;;18.57;5.40;;;2.30;99.90;;;;;;4437545;28;658352;-74
2023/02/01 09:33:57;;;;;;;11.10;4.73;;;2.40;99.90;;;;;;4429079;28;657951;-76
2023/02/01 09:36:44;;;;;;;16.60;5.60;;;2.40;99.90;;;;;;4437919;28;657652;-74
2023/02/01 09:39:31;;;;;;;15.43;5.03;;;2.40;99.90;;;;;;4415782;28;658614;-74
2023/02/01 09:42:27;;;;;;;15.63;5.88;;;2.50;99.90;;;;;;4440043;28;658265;-74
2023/02/01 09:45:21;;;;;;;12.33;3.97;;;2.40;99.90;;;;;;4416996;28;657693;-74
2023/02/01 09:48:12;;;;;;;11.27;4.57;;;2.30;99.90;;;;;;4425002;28;658447;-74
2023/02/01 09:51:00;;;;;;;17.70;4.70;;;2.50;99.90;;;;;;4415008;28;658276;-75
2023/02/01 09:53:50;;;;;;;9.43;3.80;;;2.60;99.90;;;;;;4414740;28;657664;-72
2023/02/01 09:56:40;;;;;;;18.73;4.50;;;2.50;99.90;;;;;;4421166;28;657287;-71
2023/02/01 09:59:33;;;;;;;7.60;2.90;;;2.40;99.90;;;;;;4422391;28;658672;-71
2023/02/01 10:02:21;;;;;;;7.45;2.75;;;2.20;99.90;;;;;;4417744;28;656431;-72
2023/02/01 10:05:14;;;;;;;12.37;3.90;;;2.20;99.90;;;;;;4449747;28;656569;-71
2023/02/01 10:08:05;;;;;;;8.82;2.83;;;2.20;99.90;;;;;;4412281;28;657548;-70
2023/02/01 10:10:53;;;;;;;11.43;3.97;;;2.20;99.90;;;;;;4417738;28;656890;-72
2023/02/01 10:13:46;;;;;;;12.60;3.87;;;2.20;99.90;;;;;;4428547;28;657392;-71
2023/02/01 10:16:37;;;;;;;16.47;5.07;;;2.20;99.90;;;;;;4417272;28;657948;-71
2023/02/01 10:19:31;;;;;;;16.13;5.10;;;1.90;99.90;;;;;;4443623;28;657399;-73
2023/02/01 10:22:24;;;;;;;13.47;5.30;;;2.00;99.90;;;;;;4406575;28;658861;-72
2023/02/01 10:25:18;;;;;;;14.50;4.73;;;2.00;99.90;;;;;;4413954;28;657582;-73
2023/02/01 10:28:05;;;;;;;11.83;4.17;;;2.20;99.90;;;;;;4398430;28;658040;-73
2023/02/01 10:30:53;;;;;;;18.67;6.47;;;2.00;99.90;;;;;;4444979;28;659217;-73
2023/02/01 10:33:42;;;;;;;14.07;6.30;;;2.10;99.90;;;;;;4421915;28;657595;-74
2023/02/01 10:36:31;;;;;;;15.23;5.30;;;2.00;99.90;;;;;;4450633;28;657394;-70
2023/02/01 10:39:18;;;;;;;14.90;5.53;;;2.10;99.90;;;;;;4412626;28;658728;-71
2023/02/01 10:42:08;;;;;;;13.30;5.97;;;2.20;99.90;;;;;;4417633;28;658054;-72
2023/02/01 10:44:57;;;;;;;19.40;6.50;;;2.20;99.90;;;;;;4420874;28;659086;-72
2023/02/01 10:47:44;;;;;;;9.77;4.37;;;2.20;99.90;;;;;;4440570;28;657422;-71
2023/02/01 10:50:36;;;;;;;18.55;6.82;;;2.20;99.90;;;;;;4430654;28;656754;-71
2023/02/01 10:53:25;;;;;;;11.57;5.20;;;2.20;99.90;;;;;;4415618;28;658304;-71
2023/02/01 10:56:12;;;;;;;13.97;5.80;;;2.20;99.90;;;;;;4421906;28;657509;-71
2023/02/01 10:59:05;;;;;;;17.60;5.67;;;2.20;99.90;;;;;;4436511;28;657242;-71
2023/02/01 11:01:59;;;;;;;21.10;7.40;;;2.40;99.90;;;;;;4390897;28;657898;-72
2023/02/01 11:04:46;;;;;;;12.20;4.68;;;2.40;99.90;;;;;;4398043;28;658052;-72
2023/02/01 11:07:34;;;;;;;13.27;4.63;;;2.30;99.90;;;;;;4436592;28;658415;-73
2023/02/01 11:10:36;;;;;;;17.40;6.40;;;2.20;99.90;;;;;;4422528;28;657860;-74
2023/02/01 11:13:23;;;;;;;6.80;3.57;;;2.30;99.90;;;;;;4421671;28;657119;-71
2023/02/01 11:16:15;;;;;;;16.00;5.45;;;2.30;99.90;;;;;;4426080;28;656416;-72
2023/02/01 11:19:02;;;;;;;11.43;5.20;;;2.10;99.90;;;;;;4417706;28;658155;-72
2023/02/01 11:21:50;;;;;;;9.37;5.13;;;2.10;99.90;;;;;;4439068;28;657853;-73
2023/02/01 11:24:40;;;;;;;11.80;4.70;;;2.20;99.90;;;;;;4432495;28;657034;-71
2023/02/01 11:27:27;;;;;;;11.80;5.00;;;2.20;99.90;;;;;;4413106;28;658782;-72
2023/02/01 11:30:17;;;;;;;11.13;4.70;;;2.00;99.90;;;;;;4432153;28;657807;-72
2023/02/01 11:33:06;;;;;;;13.13;4.93;;;2.00;99.90;;;;;;4412023;28;657770;-71
2023/02/01 11:35:53;;;;;;;11.23;5.13;;;1.90;99.90;;;;;;4414604;28;657838;-72
2023/02/01 11:38:40;;;;;;;17.90;5.07;;;1.90;99.90;;;;;;4416192;28;657903;-71
2023/02/01 11:41:28;;;;;;;15.63;5.67;;;1.70;99.90;;;;;;4442181;28;657672;-71
2023/02/01 11:44:22;;;;;;;13.57;6.23;;;1.70;99.90;;;;;;4419701;28;658231;-71
2023/02/01 11:47:28;;;;;;;12.60;5.53;;;1.80;99.90;;;;;;4414412;28;657369;-74
2023/02/01 11:50:20;;;;;;;16.83;6.43;;;1.70;99.90;;;;;;4402165;28;657893;-72
2023/02/01 11:53:26;;;;;;;18.90;6.13;;;1.80;99.90;;;;;;4406221;28;658374;-71
2023/02/01 11:56:18;;;;;;;15.53;7.53;;;1.80;99.90;;;;;;4411806;28;658641;-72
2023/02/01 11:59:12;;;;;;;23.30;7.67;;;2.00;99.90;;;;;;4395286;28;658004;-72
2023/02/01 12:02:12;;;;;;;15.17;6.87;;;2.00;99.90;;;;;;4407472;28;657981;-74
2023/02/01 12:05:11;;;;;;;18.63;5.70;;;2.20;99.90;;;;;;4415459;28;657531;-72
2023/02/01 12:08:16;;;;;;;26.67;5.93;;;2.00;99.90;;;;;;4412782;28;657745;-72
2023/02/01 12:11:27;;;;;;;18.87;7.30;;;2.10;99.90;;;;;;4414161;28;658290;-73
2023/02/01 12:14:37;;;;;;;14.10;5.80;;;2.20;99.90;;;;;;4414527;28;657459;-73
2023/02/01 12:17:50;;;;;;;15.20;6.70;;;2.10;99.90;;;;;;4416898;28;657878;-73
2023/02/01 12:20:51;;;;;;;14.33;6.33;;;2.30;99.90;;;;;;4391153;28;658049;-70
2023/02/01 12:23:49;;;;;;;13.10;6.30;;;2.30;99.90;;;;;;4422564;28;657693;-72
2023/02/01 12:26:43;;;;;;;17.83;6.73;;;2.20;99.90;;;;;;4427103;28;657488;-73
2023/02/01 12:29:43;;;;;;;12.73;4.97;;;2.20;99.90;;;;;;4414250;28;657767;-74
2023/02/01 12:32:38;;;;;;;17.37;6.60;;;2.10;99.90;;;;;;4397534;28;658057;-75
2023/02/01 12:35:45;;;;;;;10.23;4.97;;;2.00;99.90;;;;;;4394368;28;658221;-72
2023/02/01 12:38:52;;;;;;;14.33;6.23;;;2.20;99.90;;;;;;4392524;28;657633;-72
2023/02/01 12:41:50;;;;;;;14.80;6.35;;;2.20;99.90;;;;;;4415618;28;658398;-73
2023/02/01 12:44:41;;;;;;;22.03;9.10;;;2.20;99.90;;;;;;4403421;28;657740;-71
2023/02/01 12:47:32;;;;;;;12.60;6.43;;;2.30;99.90;;;;;;4374721;28;658062;-73
2023/02/01 12:50:21;;;;;;;13.53;5.80;;;2.40;99.90;;;;;;4301955;28;658943;-73
2023/02/01 12:53:10;;;;;;;14.23;6.75;;;2.30;99.90;;;;;;4280134;28;658647;-72
2023/02/01 12:56:02;;;;;;;26.90;8.03;;;2.20;99.90;;;;;;4364648;28;659015;-71
2023/02/01 12:58:50;;;;;;;14.83;6.40;;;2.10;99.90;;;;;;4416814;28;657524;-71
2023/02/01 13:01:40;;;;;;;20.87;8.03;;;2.10;99.90;;;;;;4427484;28;658390;-72
2023/02/01 13:04:30;;;;;;;22.07;8.43;;;2.00;99.90;;;;;;4417587;28;658995;-72
2023/02/01 13:07:19;;;;;;;17.30;6.47;;;2.10;99.90;;;;;;4407342;28;659048;-71
2023/02/01 13:10:12;;;;;;;15.27;7.10;;;2.00;99.90;;;;;;4420689;28;657779;-71
2023/02/01 13:13:05;;;;;;;13.77;7.17;;;2.00;99.90;;;;;;4440228;28;657909;-71
2023/02/01 13:15:58;;;;;;;24.57;10.10;;;2.00;99.90;;;;;;4420840;28;658486;-71
2023/02/01 13:18:47;;;;;;;22.03;8.23;;;2.00;99.90;;;;;;4367006;28;659179;-72
2023/02/01 13:21:36;;;;;;;23.93;9.00;;;1.90;99.90;;;;;;4398333;28;657487;-72
2023/02/01 13:24:31;;;;;;;21.15;9.25;;;1.90;99.90;;;;;;4376574;28;658477;-71
2023/02/01 13:27:18;;;;;;;26.20;10.53;;;1.90;99.90;;;;;;4387419;28;658542;-70
2023/02/01 13:30:11;;;;;;;24.37;10.40;;;1.90;99.90;;;;;;4384798;28;659404;-72
2023/02/01 13:33:15;;;;;;;23.10;11.13;;;1.90;99.90;;;;;;4390722;28;659179;-71
2023/02/01 13:36:38;;;;;;;17.52;6.90;;;2.00;99.90;;;;;;4383308;28;658574;-71
2023/02/01 13:40:00;;;;;;;26.40;11.17;;;2.10;99.90;;;;;;4356977;28;658000;-72
2023/02/01 13:42:49;;;;;;;24.70;10.33;;;2.10;99.90;;;;;;4322735;28;658964;-71
2023/02/01 13:45:43;;;;;;;24.00;11.40;;;2.10;99.90;;;;;;4385361;28;658894;-71
2023/02/01 13:48:34;;;;;;;22.43;9.37;;;2.10;99.90;;;;;;4370545;28;658686;-72
2023/02/01 13:51:34;;;;;;;25.03;10.90;;;2.20;99.90;;;;;;4383101;28;657404;-72
2023/02/01 13:54:29;;;;;;;24.87;9.63;;;2.30;99.90;;;;;;4383058;28;658281;-71
2023/02/01 13:57:35;;;;;;;27.80;10.57;;;2.30;99.90;;;;;;4388522;28;658398;-71
2023/02/01 14:00:26;;;;;;;17.23;6.97;;;2.30;99.90;;;;;;4352553;28;659285;-71
2023/02/01 14:03:22;;;;;;;19.47;9.03;;;2.30;99.90;;;;;;4379594;28;658025;-71
2023/02/01 14:06:35;;;;;;;21.80;10.13;;;2.40;99.90;;;;;;4373914;28;657923;-72
2023/02/01 14:09:34;;;;;;;29.43;10.57;;;2.20;99.90;;;;;;4381676;28;658609;-71
2023/02/01 14:12:43;;;;;;;28.23;10.50;;;2.30;99.90;;;;;;4388795;28;658352;-72
2023/02/01 14:15:31;;;;;;;14.17;7.40;;;2.30;99.90;;;;;;4364684;28;659447;-73
2023/02/01 14:19:00;;;;;;;23.93;10.63;;;2.30;99.90;;;;;;4416228;28;658077;-71
2023/02/01 14:21:48;;;;;;;13.83;7.77;;;2.10;99.90;;;;;;4368956;28;659337;-70
2023/02/01 14:24:36;;;;;;;26.23;9.77;;;2.10;99.90;;;;;;4390667;28;657617;-72
2023/02/01 14:27:24;;;;;;;22.83;10.43;;;2.00;99.90;;;;;;4408046;28;658601;-72
2023/02/01 14:30:15;;;;;;;25.43;10.77;;;2.00;99.90;;;;;;4399298;28;659991;-72
2023/02/01 14:33:12;;;;;;;19.70;10.15;;;1.90;99.90;;;;;;4389493;28;658727;-71
2023/02/01 14:36:07;;;;;;;21.03;9.27;;;1.90;99.90;;;;;;4386890;28;658642;-72
2023/02/01 14:38:54;;;;;;;21.33;7.47;;;1.80;99.90;;;;;;4382207;28;657909;-71
2023/02/01 14:41:41;;;;;;;19.35;8.52;;;1.60;99.90;;;;;;4388088;28;657551;-70
2023/02/01 14:44:31;;;;;;;14.97;5.97;;;1.40;99.90;;;;;;4407639;28;658117;-71
2023/02/01 14:47:33;;;;;;;18.37;8.30;;;1.20;99.90;;;;;;4380265;28;658027;-71
2023/02/01 14:50:28;;;;;;;14.77;7.93;;;1.10;99.90;;;;;;4368170;28;658166;-71
2023/02/01 14:53:20;;;;;;;14.87;7.67;;;0.90;99.90;;;;;;4368669;28;657645;-71
2023/02/01 14:56:09;;;;;;;11.40;5.47;;;1.00;99.90;;;;;;4380506;28;658446;-70
2023/02/01 14:58:58;;;;;;;14.97;8.13;;;0.90;99.90;;;;;;4395916;28;657759;-70